createdAt,value
2022-10-17T00:00:26.751Z,1017.44
2022-10-17T00:01:26.719Z,1017.50
2022-10-17T00:02:26.636Z,1017.49
2022-10-17T00:03:26.620Z,1017.60
2022-10-17T00:04:26.665Z,1017.54
2022-10-17T00:05:26.595Z,1017.53
2022-10-17T00:06:26.585Z,1017.52
2022-10-17T00:07:26.900Z,1017.44
2022-10-17T00:08:26.562Z,1017.46
2022-10-17T00:09:26.550Z,1017.48
2022-10-17T00:10:26.544Z,1017.53
2022-10-17T00:11:26.555Z,1017.51
2022-10-17T00:12:26.519Z,1017.59
2022-10-17T00:13:26.559Z,1017.60
2022-10-17T00:14:26.500Z,1017.60
2022-10-17T00:15:26.486Z,1017.65
2022-10-17T00:16:26.480Z,1017.61
2022-10-17T00:17:26.807Z,1017.61
2022-10-17T00:18:26.456Z,1017.60
2022-10-17T00:19:26.441Z,1017.54
2022-10-17T00:20:26.428Z,1017.46
2022-10-17T00:21:26.416Z,1017.45
2022-10-17T00:22:26.522Z,1017.37
2022-10-17T00:23:26.396Z,1017.28
2022-10-17T00:24:26.385Z,1017.33
2022-10-17T00:25:26.377Z,1017.29
2022-10-17T00:26:26.364Z,1017.39
2022-10-17T00:27:26.748Z,1017.33
2022-10-17T00:28:26.382Z,1017.31
2022-10-17T00:29:26.329Z,1017.46
2022-10-17T00:30:26.324Z,1017.48
2022-10-17T00:31:26.307Z,1017.42
2022-10-17T00:32:26.487Z,1017.51
2022-10-17T00:33:26.283Z,1017.46
2022-10-17T00:34:26.271Z,1017.52
2022-10-17T00:35:26.268Z,1017.54
2022-10-17T00:36:26.251Z,1017.49
2022-10-17T00:37:26.240Z,1017.42
2022-10-17T00:38:26.228Z,1017.35
2022-10-17T00:39:26.216Z,1017.35
2022-10-17T00:40:26.205Z,1017.40
2022-10-17T00:41:26.194Z,1017.31
2022-10-17T00:42:26.432Z,1017.32
2022-10-17T00:43:26.202Z,1017.32
2022-10-17T00:44:26.161Z,1017.33
2022-10-17T00:45:26.149Z,1017.34
2022-10-17T00:46:26.137Z,1017.38
2022-10-17T00:47:26.127Z,1017.35
2022-10-17T00:48:26.115Z,1017.44
2022-10-17T00:49:26.105Z,1017.46
2022-10-17T00:50:26.095Z,1017.43
2022-10-17T00:51:26.085Z,1017.43
2022-10-17T00:52:26.491Z,1017.46
2022-10-17T00:53:26.063Z,1017.50
2022-10-17T00:54:26.053Z,1017.55
2022-10-17T00:55:26.038Z,1017.56
2022-10-17T00:56:26.032Z,1017.57
2022-10-17T00:57:26.023Z,1017.57
2022-10-17T00:58:26.004Z,1017.56
2022-10-17T00:59:26.016Z,1017.57
2022-10-17T01:00:25.982Z,1017.57
2022-10-17T01:01:26.072Z,1017.63
2022-10-17T01:02:26.306Z,1017.56
2022-10-17T01:03:25.949Z,1017.63
2022-10-17T01:04:25.946Z,1017.57
2022-10-17T01:05:25.928Z,1017.60
2022-10-17T01:06:25.914Z,1017.56
2022-10-17T01:07:25.908Z,1017.48
2022-10-17T01:08:25.900Z,1017.47
2022-10-17T01:09:25.881Z,1017.50
2022-10-17T01:10:25.883Z,1017.43
2022-10-17T01:11:25.871Z,1017.41
2022-10-17T01:12:26.201Z,1017.36
2022-10-17T01:13:25.838Z,1017.34
2022-10-17T01:14:25.826Z,1017.32
2022-10-17T01:15:25.843Z,1017.33
2022-10-17T01:16:25.808Z,1017.30
2022-10-17T01:17:25.792Z,1017.35
2022-10-17T01:18:25.785Z,1017.36
2022-10-17T01:19:25.778Z,1017.35
2022-10-17T01:20:25.759Z,1017.33
2022-10-17T01:21:25.751Z,1017.37
2022-10-17T01:22:26.071Z,1017.32
2022-10-17T01:23:25.726Z,1017.33
2022-10-17T01:24:25.721Z,1017.33
2022-10-17T01:25:25.703Z,1017.27
2022-10-17T01:26:25.699Z,1017.34
2022-10-17T01:27:25.690Z,1017.32
2022-10-17T01:28:25.871Z,1017.34
2022-10-17T01:29:25.668Z,1017.30
2022-10-17T01:30:25.649Z,1017.31
2022-10-17T01:31:25.665Z,1017.24
2022-10-17T01:32:26.047Z,1017.28
2022-10-17T01:33:25.614Z,1017.30
2022-10-17T01:34:25.603Z,1017.26
2022-10-17T01:35:25.591Z,1017.19
2022-10-17T01:36:25.580Z,1017.19
2022-10-17T01:37:25.618Z,1017.18
2022-10-17T01:38:25.559Z,1017.15
2022-10-17T01:39:26.955Z,1017.25
2022-10-17T01:40:25.538Z,1017.24
2022-10-17T01:41:25.531Z,1017.24
2022-10-17T01:42:25.949Z,1017.22
2022-10-17T01:43:25.503Z,1017.19
2022-10-17T01:44:25.493Z,1017.18
2022-10-17T01:45:25.485Z,1017.20
2022-10-17T01:46:25.469Z,1017.18
2022-10-17T01:47:25.883Z,1017.19
2022-10-17T01:48:25.455Z,1017.05
2022-10-17T01:49:25.437Z,1017.14
2022-10-17T01:50:25.425Z,1017.13
2022-10-17T01:51:25.413Z,1017.13
2022-10-17T01:52:25.402Z,1017.11
2022-10-17T01:53:25.390Z,1017.07
2022-10-17T01:54:25.380Z,1017.18
2022-10-17T01:55:25.373Z,1017.12
2022-10-17T01:56:25.365Z,1017.07
2022-10-17T01:57:25.666Z,1017.10
2022-10-17T01:58:25.340Z,1017.11
2022-10-17T01:59:25.324Z,1017.11
2022-10-17T02:00:25.312Z,1017.08
2022-10-17T02:01:25.366Z,1017.15
2022-10-17T02:02:25.292Z,1017.14
2022-10-17T02:03:25.302Z,1017.14
2022-10-17T02:04:25.271Z,1017.17
2022-10-17T02:05:25.261Z,1017.08
2022-10-17T02:06:25.248Z,1017.13
2022-10-17T02:07:25.526Z,1017.14
2022-10-17T02:08:25.223Z,1017.14
2022-10-17T02:09:25.218Z,1017.09
2022-10-17T02:10:25.202Z,1017.08
2022-10-17T02:11:25.190Z,1017.13
2022-10-17T02:12:25.179Z,1017.10
2022-10-17T02:13:25.167Z,1017.11
2022-10-17T02:14:25.155Z,1017.16
2022-10-17T02:15:25.149Z,1017.10
2022-10-17T02:16:25.133Z,1017.23
2022-10-17T02:17:25.333Z,1017.12
2022-10-17T02:18:25.117Z,1017.17
2022-10-17T02:19:25.124Z,1017.15
2022-10-17T02:20:25.095Z,1017.15
2022-10-17T02:21:25.086Z,1017.11
2022-10-17T02:22:25.074Z,1017.13
2022-10-17T02:23:25.067Z,1017.13
2022-10-17T02:24:25.047Z,1017.10
2022-10-17T02:25:25.035Z,1017.09
2022-10-17T02:26:25.025Z,1017.11
2022-10-17T02:27:25.246Z,1017.10
2022-10-17T02:28:25.056Z,1017.10
2022-10-17T02:29:24.996Z,1017.11
2022-10-17T02:30:24.987Z,1017.10
2022-10-17T02:31:24.977Z,1017.11
2022-10-17T02:32:24.983Z,1017.19
2022-10-17T02:33:24.949Z,1017.11
2022-10-17T02:34:24.936Z,1017.11
2022-10-17T02:35:24.945Z,1017.10
2022-10-17T02:36:24.910Z,1017.08
2022-10-17T02:37:25.178Z,1017.10
2022-10-17T02:38:24.886Z,1017.11
2022-10-17T02:39:24.879Z,1017.04
2022-10-17T02:40:24.867Z,1017.01
2022-10-17T02:41:24.945Z,1017.04
2022-10-17T02:42:24.844Z,1017.00
2022-10-17T02:43:24.838Z,1017.04
2022-10-17T02:44:24.830Z,1017.06
2022-10-17T02:45:24.809Z,1017.04
2022-10-17T02:46:24.804Z,1017.04
2022-10-17T02:47:24.787Z,1017.03
2022-10-17T02:48:24.774Z,1017.09
2022-10-17T02:49:24.765Z,1017.00
2022-10-17T02:50:24.833Z,1016.97
2022-10-17T02:51:24.765Z,1016.96
2022-10-17T02:52:24.735Z,1017.05
2022-10-17T02:53:24.718Z,1016.99
2022-10-17T02:54:24.716Z,1016.99
2022-10-17T02:55:24.703Z,1016.98
2022-10-17T02:56:24.687Z,1016.99
2022-10-17T02:57:24.676Z,1016.96
2022-10-17T02:58:24.665Z,1016.99
2022-10-17T02:59:24.731Z,1017.01
2022-10-17T03:00:24.642Z,1016.95
2022-10-17T03:01:24.677Z,1016.97
2022-10-17T03:02:24.619Z,1017.01
2022-10-17T03:03:24.610Z,1017.02
2022-10-17T03:04:24.595Z,1017.03
2022-10-17T03:05:24.583Z,1017.03
2022-10-17T03:06:24.673Z,1016.99
2022-10-17T03:07:24.586Z,1017.00
2022-10-17T03:08:24.613Z,1016.99
2022-10-17T03:09:24.537Z,1016.95
2022-10-17T03:10:24.533Z,1017.02
2022-10-17T03:11:24.523Z,1016.97
2022-10-17T03:12:24.505Z,1016.96
2022-10-17T03:13:24.495Z,1016.96
2022-10-17T03:14:24.481Z,1016.89
2022-10-17T03:15:24.471Z,1016.91
2022-10-17T03:16:24.462Z,1016.97
2022-10-17T03:17:24.448Z,1016.95
2022-10-17T03:18:24.442Z,1016.92
2022-10-17T03:19:24.432Z,1016.93
2022-10-17T03:20:24.415Z,1016.97
2022-10-17T03:21:24.403Z,1017.02
2022-10-17T03:22:24.392Z,1016.98
2022-10-17T03:23:24.406Z,1017.02
2022-10-17T03:24:24.369Z,1017.02
2022-10-17T03:25:24.355Z,1017.01
2022-10-17T03:26:24.360Z,1016.93
2022-10-17T03:27:24.337Z,1017.01
2022-10-17T03:28:24.396Z,1016.95
2022-10-17T03:29:24.318Z,1016.93
2022-10-17T03:30:24.309Z,1016.90
2022-10-17T03:31:24.286Z,1016.87
2022-10-17T03:32:24.283Z,1017.01
2022-10-17T03:33:24.265Z,1016.86
2022-10-17T03:34:24.260Z,1016.85
2022-10-17T03:35:24.242Z,1016.82
2022-10-17T03:36:24.242Z,1016.84
2022-10-17T03:37:24.217Z,1016.77
2022-10-17T03:38:24.211Z,1016.78
2022-10-17T03:39:24.227Z,1016.74
2022-10-17T03:40:24.186Z,1016.79
2022-10-17T03:41:24.180Z,1016.79
2022-10-17T03:42:24.159Z,1016.84
2022-10-17T03:43:24.150Z,1016.86
2022-10-17T03:44:24.146Z,1016.84
2022-10-17T03:45:24.126Z,1016.85
2022-10-17T03:46:24.127Z,1016.98
2022-10-17T03:47:24.107Z,1016.96
2022-10-17T03:48:24.094Z,1016.93
2022-10-17T03:49:24.086Z,1016.96
2022-10-17T03:50:24.069Z,1016.99
2022-10-17T03:51:24.060Z,1016.97
2022-10-17T03:52:24.048Z,1016.93
2022-10-17T03:53:24.035Z,1016.88
2022-10-17T03:54:24.030Z,1016.90
2022-10-17T03:55:24.036Z,1016.85
2022-10-17T03:56:24.002Z,1016.86
2022-10-17T03:57:23.999Z,1016.91
2022-10-17T03:58:23.985Z,1016.86
2022-10-17T03:59:23.968Z,1016.87
2022-10-17T04:00:23.962Z,1016.86
2022-10-17T04:01:23.996Z,1016.82
2022-10-17T04:02:23.934Z,1016.80
2022-10-17T04:03:23.922Z,1016.84
2022-10-17T04:04:23.912Z,1016.79
2022-10-17T04:05:23.903Z,1016.84
2022-10-17T04:06:23.893Z,1016.77
2022-10-17T04:07:23.917Z,1016.80
2022-10-17T04:08:23.867Z,1016.77
2022-10-17T04:09:23.852Z,1016.78
2022-10-17T04:10:23.840Z,1016.78
2022-10-17T04:11:23.855Z,1016.77
2022-10-17T04:12:23.818Z,1016.78
2022-10-17T04:13:23.806Z,1016.60
2022-10-17T04:14:23.794Z,1016.71
2022-10-17T04:15:23.782Z,1016.68
2022-10-17T04:16:23.774Z,1016.67
2022-10-17T04:17:23.765Z,1016.67
2022-10-17T04:18:23.748Z,1016.57
2022-10-17T04:19:23.745Z,1016.60
2022-10-17T04:20:23.734Z,1016.57
2022-10-17T04:21:23.713Z,1016.62
2022-10-17T04:22:23.701Z,1016.61
2022-10-17T04:23:23.692Z,1016.62
2022-10-17T04:24:23.678Z,1016.61
2022-10-17T04:25:23.668Z,1016.78
2022-10-17T04:26:23.658Z,1016.76
2022-10-17T04:27:23.672Z,1016.67
2022-10-17T04:28:23.709Z,1016.62
2022-10-17T04:29:23.621Z,1016.62
2022-10-17T04:30:23.609Z,1016.68
2022-10-17T04:31:23.597Z,1016.65
2022-10-17T04:32:23.586Z,1016.77
2022-10-17T04:33:23.576Z,1016.75
2022-10-17T04:34:23.563Z,1016.71
2022-10-17T04:35:23.552Z,1016.74
2022-10-17T04:36:23.544Z,1016.68
2022-10-17T04:37:23.531Z,1016.61
2022-10-17T04:38:27.653Z,1016.69
2022-10-17T04:39:23.505Z,1016.67
2022-10-17T04:40:23.495Z,1016.68
2022-10-17T04:41:23.485Z,1016.74
2022-10-17T04:42:23.474Z,1016.64
2022-10-17T04:43:23.494Z,1016.66
2022-10-17T04:44:23.451Z,1016.59
2022-10-17T04:45:23.434Z,1016.60
2022-10-17T04:46:23.428Z,1016.68
2022-10-17T04:47:23.425Z,1016.71
2022-10-17T04:48:23.401Z,1016.66
2022-10-17T04:49:23.399Z,1016.70
2022-10-17T04:50:23.387Z,1016.71
2022-10-17T04:51:25.941Z,1016.75
2022-10-17T04:52:23.362Z,1016.70
2022-10-17T04:53:23.343Z,1016.70
2022-10-17T04:54:23.332Z,1016.72
2022-10-17T04:55:23.323Z,1016.74
2022-10-17T04:56:23.307Z,1016.70
2022-10-17T04:57:23.296Z,1016.72
2022-10-17T04:58:23.293Z,1016.74
2022-10-17T04:59:23.325Z,1016.75
2022-10-17T05:00:23.268Z,1016.76
2022-10-17T05:01:23.281Z,1016.77
2022-10-17T05:02:23.246Z,1016.71
2022-10-17T05:03:23.226Z,1016.75
2022-10-17T05:04:24.835Z,1016.69
2022-10-17T05:05:23.207Z,1016.65
2022-10-17T05:06:23.203Z,1016.70
2022-10-17T05:07:23.181Z,1016.65
2022-10-17T05:08:23.178Z,1016.67
2022-10-17T05:09:23.157Z,1016.66
2022-10-17T05:10:23.146Z,1016.70
2022-10-17T05:11:23.136Z,1016.69
2022-10-17T05:12:23.123Z,1016.66
2022-10-17T05:13:23.125Z,1016.70
2022-10-17T05:14:23.106Z,1016.69
2022-10-17T05:15:23.113Z,1016.73
2022-10-17T05:16:23.084Z,1016.72
2022-10-17T05:17:23.064Z,1016.68
2022-10-17T05:18:23.053Z,1016.72
2022-10-17T05:19:23.042Z,1016.75
2022-10-17T05:20:23.030Z,1016.70
2022-10-17T05:21:25.077Z,1016.72
2022-10-17T05:22:23.012Z,1016.80
2022-10-17T05:23:22.995Z,1016.83
2022-10-17T05:24:22.986Z,1016.81
2022-10-17T05:25:22.970Z,1016.83
2022-10-17T05:26:22.960Z,1016.82
2022-10-17T05:27:24.946Z,1016.78
2022-10-17T05:28:24.998Z,1016.73
2022-10-17T05:29:22.927Z,1016.70
2022-10-17T05:30:22.959Z,1016.71
2022-10-17T05:31:22.923Z,1016.69
2022-10-17T05:32:22.895Z,1016.70
2022-10-17T05:33:22.887Z,1016.73
2022-10-17T05:34:24.866Z,1016.78
2022-10-17T05:35:22.859Z,1016.77
2022-10-17T05:36:24.851Z,1016.81
2022-10-17T05:37:22.841Z,1016.71
2022-10-17T05:38:22.824Z,1016.76
2022-10-17T05:39:24.806Z,1016.74
2022-10-17T05:40:22.799Z,1016.73
2022-10-17T05:41:22.786Z,1016.77
2022-10-17T05:42:22.817Z,1016.72
2022-10-17T05:43:22.764Z,1016.72
2022-10-17T05:44:22.750Z,1016.72
2022-10-17T05:45:22.738Z,1016.75
2022-10-17T05:46:22.729Z,1016.72
2022-10-17T05:47:22.742Z,1016.80
2022-10-17T05:48:22.705Z,1016.80
2022-10-17T05:49:33.324Z,1016.76
2022-10-17T05:50:22.681Z,1016.83
2022-10-17T05:51:22.674Z,1016.76
2022-10-17T05:52:22.666Z,1016.76
2022-10-17T05:53:22.651Z,1016.79
2022-10-17T05:54:22.643Z,1016.75
2022-10-17T05:55:22.623Z,1016.78
2022-10-17T05:56:22.615Z,1016.80
2022-10-17T05:57:22.606Z,1016.81
2022-10-17T05:58:45.565Z,1016.83
2022-10-17T05:59:22.586Z,1016.82
2022-10-17T06:00:22.567Z,1016.89
2022-10-17T06:01:22.556Z,1016.79
2022-10-17T06:02:22.608Z,1016.91
2022-10-17T06:03:22.557Z,1016.90
2022-10-17T06:04:22.643Z,1016.89
2022-10-17T06:05:22.522Z,1016.87
2022-10-17T06:06:22.501Z,1016.90
2022-10-17T06:07:22.493Z,1016.85
2022-10-17T06:08:22.474Z,1016.89
2022-10-17T06:09:22.461Z,1016.90
2022-10-17T06:10:22.454Z,1016.94
2022-10-17T06:11:22.441Z,1016.94
2022-10-17T06:12:22.427Z,1016.97
2022-10-17T06:13:22.417Z,1016.98
2022-10-17T06:14:22.406Z,1017.03
2022-10-17T06:15:22.401Z,1017.04
2022-10-17T06:16:22.392Z,1017.02
2022-10-17T06:17:22.368Z,1017.08
2022-10-17T06:18:22.359Z,1017.12
2022-10-17T06:19:22.375Z,1017.13
2022-10-17T06:20:22.337Z,1017.16
2022-10-17T06:21:22.328Z,1017.15
2022-10-17T06:22:22.319Z,1017.20
2022-10-17T06:23:22.306Z,1017.15
2022-10-17T06:24:22.291Z,1017.21
2022-10-17T06:25:22.281Z,1017.15
2022-10-17T06:26:22.264Z,1017.16
2022-10-17T06:27:22.264Z,1017.17
2022-10-17T06:28:22.313Z,1017.19
2022-10-17T06:29:22.269Z,1017.18
2022-10-17T06:30:22.220Z,1017.16
2022-10-17T06:31:22.213Z,1017.17
2022-10-17T06:32:22.202Z,1017.19
2022-10-17T06:33:22.183Z,1017.13
2022-10-17T06:34:22.175Z,1017.19
2022-10-17T06:35:22.186Z,1017.19
2022-10-17T06:36:22.158Z,1017.22
2022-10-17T06:37:22.139Z,1017.27
2022-10-17T06:38:22.135Z,1017.29
2022-10-17T06:39:22.120Z,1017.30
2022-10-17T06:40:22.113Z,1017.25
2022-10-17T06:41:22.099Z,1017.26
2022-10-17T06:42:22.265Z,1017.23
2022-10-17T06:43:26.926Z,1017.16
2022-10-17T06:44:22.058Z,1017.22
2022-10-17T06:45:22.051Z,1017.36
2022-10-17T06:46:22.038Z,1017.33
2022-10-17T06:47:22.026Z,1017.34
2022-10-17T06:48:22.019Z,1017.33
2022-10-17T06:49:22.000Z,1017.44
2022-10-17T06:50:21.988Z,1017.43
2022-10-17T06:51:22.007Z,1017.28
2022-10-17T06:52:21.963Z,1017.32
2022-10-17T06:53:21.952Z,1017.27
2022-10-17T06:54:21.942Z,1017.40
2022-10-17T06:55:23.209Z,1017.32
2022-10-17T06:56:21.931Z,1017.40
2022-10-17T06:57:21.906Z,1017.38
2022-10-17T06:58:21.934Z,1017.37
2022-10-17T06:59:21.884Z,1017.36
2022-10-17T07:00:21.873Z,1017.36
2022-10-17T07:01:21.862Z,1017.30
2022-10-17T07:02:21.849Z,1017.31
2022-10-17T07:03:21.849Z,1017.34
2022-10-17T07:04:21.826Z,1017.22
2022-10-17T07:05:21.819Z,1017.33
2022-10-17T07:06:21.803Z,1017.25
2022-10-17T07:07:21.817Z,1017.28
2022-10-17T07:08:21.784Z,1017.34
2022-10-17T07:09:21.768Z,1017.31
2022-10-17T07:10:21.763Z,1017.39
2022-10-17T07:11:21.746Z,1017.41
2022-10-17T07:12:21.734Z,1017.40
2022-10-17T07:13:21.724Z,1017.36
2022-10-17T07:14:21.712Z,1017.41
2022-10-17T07:15:21.703Z,1017.44
2022-10-17T07:16:21.695Z,1017.37
2022-10-17T07:17:21.678Z,1017.43
2022-10-17T07:18:21.667Z,1017.55
2022-10-17T07:19:21.655Z,1017.55
2022-10-17T07:20:21.651Z,1017.54
2022-10-17T07:21:21.635Z,1017.46
2022-10-17T07:22:21.623Z,1017.46
2022-10-17T07:23:21.636Z,1017.41
2022-10-17T07:24:21.601Z,1017.51
2022-10-17T07:25:21.601Z,1017.54
2022-10-17T07:26:21.585Z,1017.55
2022-10-17T07:27:21.567Z,1017.54
2022-10-17T07:28:21.586Z,1017.51
2022-10-17T07:29:21.544Z,1017.57
2022-10-17T07:30:21.532Z,1017.56
2022-10-17T07:31:21.522Z,1017.60
2022-10-17T07:32:21.510Z,1017.54
2022-10-17T07:33:21.500Z,1017.57
2022-10-17T07:34:21.492Z,1017.59
2022-10-17T07:35:21.476Z,1017.64
2022-10-17T07:36:21.467Z,1017.61
2022-10-17T07:37:21.452Z,1017.63
2022-10-17T07:38:21.442Z,1017.60
2022-10-17T07:39:21.453Z,1017.62
2022-10-17T07:40:21.418Z,1017.53
2022-10-17T07:41:21.913Z,1017.52
2022-10-17T07:42:21.395Z,1017.56
2022-10-17T07:43:21.478Z,1017.55
2022-10-17T07:44:21.381Z,1017.51
2022-10-17T07:45:21.395Z,1017.52
2022-10-17T07:46:21.457Z,1017.51
2022-10-17T07:47:21.364Z,1017.56
2022-10-17T07:48:21.352Z,1017.50
2022-10-17T07:49:21.342Z,1017.53
2022-10-17T07:50:21.321Z,1017.53
2022-10-17T07:51:21.310Z,1017.58
2022-10-17T07:52:21.300Z,1017.56
2022-10-17T07:53:21.273Z,1017.54
2022-10-17T07:54:21.262Z,1017.50
2022-10-17T07:55:21.291Z,1017.53
2022-10-17T07:56:21.248Z,1017.54
2022-10-17T07:57:21.228Z,1017.57
2022-10-17T07:58:21.220Z,1017.59
2022-10-17T07:59:21.205Z,1017.67
2022-10-17T08:00:21.200Z,1017.65
2022-10-17T08:01:21.189Z,1017.56
2022-10-17T08:02:21.172Z,1017.60
2022-10-17T08:03:21.165Z,1017.55
2022-10-17T08:04:21.148Z,1017.67
2022-10-17T08:05:21.144Z,1017.54
2022-10-17T08:06:21.131Z,1017.50
2022-10-17T08:07:24.345Z,1017.52
2022-10-17T08:08:21.111Z,1017.55
2022-10-17T08:09:21.093Z,1017.61
2022-10-17T08:10:21.085Z,1017.57
2022-10-17T08:11:21.102Z,1017.59
2022-10-17T08:12:21.063Z,1017.53
2022-10-17T08:13:21.050Z,1017.60
2022-10-17T08:14:21.037Z,1017.55
2022-10-17T08:15:21.032Z,1017.58
2022-10-17T08:16:21.014Z,1017.53
2022-10-17T08:17:21.005Z,1017.56
2022-10-17T08:18:20.993Z,1017.59
2022-10-17T08:19:20.980Z,1017.51
2022-10-17T08:20:20.967Z,1017.58
2022-10-17T08:21:20.964Z,1017.59
2022-10-17T08:22:20.947Z,1017.64
2022-10-17T08:23:20.945Z,1017.59
2022-10-17T08:24:20.922Z,1017.68
2022-10-17T08:25:20.919Z,1017.63
2022-10-17T08:26:20.901Z,1017.62
2022-10-17T08:27:20.924Z,1017.60
2022-10-17T08:28:20.883Z,1017.64
2022-10-17T08:29:20.871Z,1017.56
2022-10-17T08:30:20.857Z,1017.58
2022-10-17T08:31:20.847Z,1017.63
2022-10-17T08:32:20.836Z,1017.60
2022-10-17T08:33:20.825Z,1017.64
2022-10-17T08:34:20.813Z,1017.61
2022-10-17T08:35:20.807Z,1017.56
2022-10-17T08:36:20.790Z,1017.60
2022-10-17T08:37:20.781Z,1017.51
2022-10-17T08:38:21.122Z,1017.52
2022-10-17T08:39:20.770Z,1017.51
2022-10-17T08:40:20.747Z,1017.54
2022-10-17T08:41:20.736Z,1017.47
2022-10-17T08:42:20.724Z,1017.48
2022-10-17T08:43:20.741Z,1017.51
2022-10-17T08:44:20.703Z,1017.49
2022-10-17T08:45:20.696Z,1017.52
2022-10-17T08:46:20.686Z,1017.47
2022-10-17T08:47:20.669Z,1017.45
2022-10-17T08:48:20.664Z,1017.52
2022-10-17T08:49:20.647Z,1017.41
2022-10-17T08:50:20.635Z,1017.40
2022-10-17T08:51:20.633Z,1017.47
2022-10-17T08:52:20.613Z,1017.43
2022-10-17T08:53:20.688Z,1017.44
2022-10-17T08:54:20.621Z,1017.39
2022-10-17T08:55:20.587Z,1017.43
2022-10-17T08:56:25.115Z,1017.48
2022-10-17T08:57:20.733Z,1017.43
2022-10-17T08:58:20.553Z,1017.45
2022-10-17T08:59:20.557Z,1017.45
2022-10-17T09:00:20.530Z,1017.51
2022-10-17T09:01:20.515Z,1017.52
2022-10-17T09:02:20.502Z,1017.48
2022-10-17T09:03:20.561Z,1017.51
2022-10-17T09:04:20.574Z,1017.50
2022-10-17T09:05:23.896Z,1017.49
2022-10-17T09:06:20.467Z,1017.48
2022-10-17T09:07:20.448Z,1017.50
2022-10-17T09:08:20.446Z,1017.47
2022-10-17T09:09:20.424Z,1017.51
2022-10-17T09:10:20.412Z,1017.60
2022-10-17T09:11:20.405Z,1017.59
2022-10-17T09:12:20.391Z,1017.55
2022-10-17T09:13:20.380Z,1017.54
2022-10-17T09:14:20.416Z,1017.60
2022-10-17T09:15:20.388Z,1017.48
2022-10-17T09:16:20.359Z,1017.55
2022-10-17T09:17:20.336Z,1017.51
2022-10-17T09:18:22.057Z,1017.60
2022-10-17T09:19:20.315Z,1017.59
2022-10-17T09:20:20.303Z,1017.54
2022-10-17T09:21:20.292Z,1017.55
2022-10-17T09:22:20.286Z,1017.61
2022-10-17T09:23:20.277Z,1017.58
2022-10-17T09:24:20.265Z,1017.63
2022-10-17T09:25:20.253Z,1017.66
2022-10-17T09:26:20.244Z,1017.64
2022-10-17T09:27:20.227Z,1017.64
2022-10-17T09:28:20.225Z,1017.53
2022-10-17T09:29:20.206Z,1017.52
2022-10-17T09:30:40.087Z,1017.51
2022-10-17T09:31:20.230Z,1017.51
2022-10-17T09:32:20.173Z,1017.46
2022-10-17T09:33:34.655Z,1017.43
2022-10-17T09:34:21.960Z,1017.52
2022-10-17T09:35:20.138Z,1017.49
2022-10-17T09:36:20.133Z,1017.42
2022-10-17T09:37:20.116Z,1017.51
2022-10-17T09:38:20.106Z,1017.48
2022-10-17T09:39:20.098Z,1017.46
2022-10-17T09:40:20.085Z,1017.41
2022-10-17T09:41:46.365Z,1017.40
2022-10-17T09:42:20.065Z,1017.43
2022-10-17T09:43:20.051Z,1017.34
2022-10-17T09:44:20.040Z,1017.45
2022-10-17T09:45:20.031Z,1017.46
2022-10-17T09:46:20.025Z,1017.39
2022-10-17T09:47:20.033Z,1017.36
2022-10-17T09:48:20.004Z,1017.45
2022-10-17T09:49:19.989Z,1017.44
2022-10-17T09:50:19.977Z,1017.45
2022-10-17T09:51:25.768Z,1017.47
2022-10-17T09:52:19.974Z,1017.42
2022-10-17T09:53:19.949Z,1017.46
2022-10-17T09:54:19.941Z,1017.47
2022-10-17T09:55:19.947Z,1017.49
2022-10-17T09:56:19.914Z,1017.46
2022-10-17T09:57:19.931Z,1017.37
2022-10-17T09:58:19.891Z,1017.35
2022-10-17T09:59:19.880Z,1017.42
2022-10-17T10:00:19.871Z,1017.36
2022-10-17T10:01:23.685Z,1017.39
2022-10-17T10:02:19.848Z,1017.36
2022-10-17T10:03:19.862Z,1017.40
2022-10-17T10:04:19.829Z,1017.40
2022-10-17T10:05:19.818Z,1017.39
2022-10-17T10:06:19.807Z,1017.31
2022-10-17T10:07:19.801Z,1017.37
2022-10-17T10:08:19.791Z,1017.32
2022-10-17T10:10:19.761Z,1017.37
2022-10-17T10:11:19.753Z,1017.37
2022-10-17T10:12:19.747Z,1017.36
2022-10-17T10:13:19.739Z,1017.38
2022-10-17T10:14:19.723Z,1017.34
2022-10-17T10:15:19.705Z,1017.44
2022-10-17T10:16:19.697Z,1017.43
2022-10-17T10:17:19.684Z,1017.47
2022-10-17T10:18:19.760Z,1017.42
2022-10-17T10:19:19.686Z,1017.41
2022-10-17T10:20:19.651Z,1017.42
2022-10-17T10:21:19.648Z,1017.39
2022-10-17T10:22:19.630Z,1017.32
2022-10-17T10:23:19.625Z,1017.39
2022-10-17T10:24:19.607Z,1017.40
2022-10-17T10:25:19.598Z,1017.40
2022-10-17T10:26:21.033Z,1017.35
2022-10-17T10:27:19.616Z,1017.33
2022-10-17T10:28:19.571Z,1017.34
2022-10-17T10:29:19.553Z,1017.38
2022-10-17T10:30:19.542Z,1017.41
2022-10-17T10:31:19.596Z,1017.40
2022-10-17T10:32:19.529Z,1017.49
2022-10-17T10:33:19.510Z,1017.42
2022-10-17T10:34:19.505Z,1017.46
2022-10-17T10:35:19.516Z,1017.45
2022-10-17T10:36:19.477Z,1017.31
2022-10-17T10:37:19.468Z,1017.35
2022-10-17T10:38:19.457Z,1017.36
2022-10-17T10:39:19.448Z,1017.36
2022-10-17T10:40:19.438Z,1017.40
2022-10-17T10:41:19.424Z,1017.40
2022-10-17T10:42:19.419Z,1017.39
2022-10-17T10:43:19.523Z,1017.41
2022-10-17T10:44:19.388Z,1017.41
2022-10-17T10:45:35.897Z,1017.40
2022-10-17T10:46:19.369Z,1017.33
2022-10-17T10:47:19.359Z,1017.47
2022-10-17T10:48:19.347Z,1017.43
2022-10-17T10:49:19.337Z,1017.45
2022-10-17T10:50:19.329Z,1017.34
2022-10-17T10:51:19.339Z,1017.34
2022-10-17T10:52:19.304Z,1017.35
2022-10-17T10:53:19.292Z,1017.29
2022-10-17T10:54:19.283Z,1017.32
2022-10-17T10:55:19.277Z,1017.27
2022-10-17T10:56:19.264Z,1017.24
2022-10-17T10:57:19.255Z,1017.21
2022-10-17T10:58:19.240Z,1017.18
2022-10-17T10:59:19.235Z,1017.25
2022-10-17T11:00:19.227Z,1017.20
2022-10-17T11:01:19.323Z,1017.21
2022-10-17T11:02:19.198Z,1017.23
2022-10-17T11:03:19.188Z,1017.27
2022-10-17T11:04:19.182Z,1017.19
2022-10-17T11:05:19.165Z,1017.21
2022-10-17T11:06:19.154Z,1017.15
2022-10-17T11:07:19.168Z,1017.22
2022-10-17T11:08:19.139Z,1017.23
2022-10-17T11:09:19.124Z,1017.22
2022-10-17T11:10:19.129Z,1017.26
2022-10-17T11:11:19.106Z,1017.27
2022-10-17T11:12:19.090Z,1017.27
2022-10-17T11:13:19.092Z,1017.24
2022-10-17T11:14:19.069Z,1017.21
2022-10-17T11:15:19.060Z,1017.25
2022-10-17T11:16:19.052Z,1017.17
2022-10-17T11:17:19.075Z,1017.17
2022-10-17T11:18:19.032Z,1017.17
2022-10-17T11:19:19.050Z,1017.07
2022-10-17T11:20:19.005Z,1017.08
2022-10-17T11:21:18.995Z,1017.08
2022-10-17T11:22:18.985Z,1017.04
2022-10-17T11:23:19.010Z,1016.97
2022-10-17T11:24:18.963Z,1017.06
2022-10-17T11:25:18.954Z,1017.02
2022-10-17T11:26:18.942Z,1017.10
2022-10-17T11:27:18.932Z,1017.17
2022-10-17T11:28:18.924Z,1017.03
2022-10-17T11:29:19.016Z,1016.99
2022-10-17T11:30:18.898Z,1016.96
2022-10-17T11:31:18.906Z,1017.01
2022-10-17T11:32:18.878Z,1017.02
2022-10-17T11:33:18.869Z,1016.96
2022-10-17T11:34:18.903Z,1017.02
2022-10-17T11:35:18.952Z,1016.90
2022-10-17T11:36:18.967Z,1017.07
2022-10-17T11:37:19.064Z,1017.00
2022-10-17T11:38:18.946Z,1016.99
2022-10-17T11:39:18.961Z,1017.01
2022-10-17T11:40:21.911Z,1016.97
2022-10-17T11:41:18.862Z,1016.97
2022-10-17T11:42:18.898Z,1017.07
2022-10-17T11:43:18.850Z,1016.89
2022-10-17T11:44:18.927Z,1016.99
2022-10-17T11:45:18.874Z,1017.00
2022-10-17T11:46:18.859Z,1016.97
2022-10-17T11:47:18.957Z,1016.97
2022-10-17T11:48:18.788Z,1016.96
2022-10-17T11:49:20.601Z,1017.02
2022-10-17T11:52:37.406Z,1016.89
2022-10-17T11:53:18.791Z,1016.92
2022-10-17T11:54:18.779Z,1016.95
2022-10-17T11:55:18.755Z,1016.98
2022-10-17T11:56:18.705Z,1016.97
2022-10-17T11:57:18.691Z,1016.93
2022-10-17T11:58:18.776Z,1016.92
2022-10-17T11:59:18.594Z,1016.98
2022-10-17T12:00:18.731Z,1017.02
2022-10-17T12:01:18.660Z,1016.94
2022-10-17T12:02:18.691Z,1016.95
2022-10-17T12:03:18.633Z,1016.96
2022-10-17T12:04:18.665Z,1016.91
2022-10-17T12:05:18.665Z,1016.97
2022-10-17T12:06:18.652Z,1016.94
2022-10-17T12:07:18.733Z,1016.90
2022-10-17T12:08:18.636Z,1016.91